Time;durP1;ratioP1;P1;durP2;ratioP2;P2;SDS_P1;SDS_P2;PMS_P1;PMS_P2;Temp;Humidity;BMP_temperature;BMP_pressure;BME280_temperature;BME280_humidity;BME280_pressure;Samples;Min_cycle;Max_cycle;Signal;HPM_P1;HPM_P2
2023/07/30 00:00:36;;;;;;;22.98;6.00;;;;;;;;;;6140671;23;20013;-95
2023/07/30 00:03:10;;;;;;;29.85;5.85;;;;;;;;;;6139859;23;20002;-94
2023/07/30 00:05:36;;;;;;;21.75;5.70;;;;;;;;;;6139437;23;20021;-95
2023/07/30 00:08:02;;;;;;;26.02;5.80;;;;;;;;;;6138476;23;20121;-95
2023/07/30 00:10:28;;;;;;;27.08;5.93;;;;;;;;;;6139593;23;20020;-95
2023/07/30 00:12:54;;;;;;;33.28;5.97;;;;;;;;;;6138939;23;20055;-95
2023/07/30 00:15:22;;;;;;;25.25;5.07;;;;;;;;;;6137856;23;20010;-95
2023/07/30 00:17:51;;;;;;;25.10;6.30;;;;;;;;;;6162651;23;20016;-95
2023/07/30 00:20:17;;;;;;;27.15;6.28;;;;;;;;;;6138664;23;20009;-95
2023/07/30 00:22:43;;;;;;;23.38;5.03;;;;;;;;;;6138506;23;20005;-95
2023/07/30 00:25:10;;;;;;;21.42;5.90;;;;;;;;;;6162221;23;20081;-95
2023/07/30 00:27:40;;;;;;;24.42;6.47;;;;;;;;;;6165583;22;20033;-94
2023/07/30 00:30:14;;;;;;;17.77;5.85;;;;;;;;;;6168163;22;20079;-94
2023/07/30 00:32:43;;;;;;;17.35;5.40;;;;;;;;;;6138108;23;20017;-95
2023/07/30 00:48:13;;;;;;;24.10;5.78;;;;;;;;;;6192993;22;20093;-94
2023/07/30 00:50:44;;;;;;;25.75;6.55;;;;;;;;;;6192627;23;20011;-95
2023/07/30 00:53:12;;;;;;;20.17;5.80;;;;;;;;;;6192083;23;20011;-94
2023/07/30 00:55:40;;;;;;;33.45;7.13;;;;;;;;;;6192017;23;20009;-95
2023/07/30 00:58:07;;;;;;;26.77;5.57;;;;;;;;;;6197617;23;20005;-95
2023/07/30 01:00:33;;;;;;;22.27;6.05;;;;;;;;;;6195597;23;20415;-96
2023/07/30 01:03:00;;;;;;;33.70;7.65;;;;;;;;;;6199018;23;20008;-95
2023/07/30 01:05:27;;;;;;;24.65;6.13;;;;;;;;;;6224333;23;20012;-95
2023/07/30 01:07:53;;;;;;;26.75;7.28;;;;;;;;;;6222230;23;20008;-95
2023/07/30 01:10:22;;;;;;;23.08;5.93;;;;;;;;;;6221026;23;20014;-95
2023/07/30 01:12:51;;;;;;;25.17;7.45;;;;;;;;;;6195083;23;20012;-95
2023/07/30 01:15:18;;;;;;;24.90;6.10;;;;;;;;;;6194281;23;20020;-96
2023/07/30 01:17:45;;;;;;;24.83;6.40;;;;;;;;;;6224478;23;20005;-95
2023/07/30 01:20:11;;;;;;;18.92;5.10;;;;;;;;;;6197066;23;20032;-95
2023/07/30 01:22:38;;;;;;;28.52;5.22;;;;;;;;;;6196079;23;20019;-96
2023/07/30 01:25:04;;;;;;;29.92;5.57;;;;;;;;;;6197549;23;20019;-95
2023/07/30 01:27:32;;;;;;;17.85;5.25;;;;;;;;;;6222785;23;20011;-95
2023/07/30 01:30:12;;;;;;;23.85;5.63;;;;;;;;;;6221902;23;20085;-95
2023/07/30 01:32:41;;;;;;;31.75;5.88;;;;;;;;;;6222942;23;20008;-94
2023/07/30 01:35:08;;;;;;;21.48;5.45;;;;;;;;;;6198500;23;20073;-96
2023/07/30 01:37:35;;;;;;;21.52;4.75;;;;;;;;;;6198353;23;20008;-95
2023/07/30 01:40:02;;;;;;;29.63;6.15;;;;;;;;;;6222915;23;20023;-95
2023/07/30 01:42:31;;;;;;;22.23;6.80;;;;;;;;;;6223209;23;20009;-95
2023/07/30 01:44:58;;;;;;;19.42;5.15;;;;;;;;;;6222430;23;20094;-95
2023/07/30 01:47:24;;;;;;;27.95;5.72;;;;;;;;;;6222331;23;20513;-94
2023/07/30 01:49:58;;;;;;;22.90;5.38;;;;;;;;;;6193589;22;20036;-96
2023/07/30 01:52:24;;;;;;;25.58;5.47;;;;;;;;;;6218441;23;20005;-95
2023/07/30 01:54:50;;;;;;;29.20;5.85;;;;;;;;;;6216807;23;20080;-95
2023/07/30 01:57:16;;;;;;;25.15;5.65;;;;;;;;;;6195759;23;20028;-94
2023/07/30 01:59:45;;;;;;;22.42;5.20;;;;;;;;;;6198070;23;20366;-93
2023/07/30 02:02:11;;;;;;;35.97;5.55;;;;;;;;;;6207581;23;20001;-95
2023/07/30 02:04:37;;;;;;;21.80;5.28;;;;;;;;;;6206402;23;20005;-95
2023/07/30 02:07:07;;;;;;;18.70;4.93;;;;;;;;;;6204800;23;20035;-95
2023/07/30 02:09:33;;;;;;;21.27;5.53;;;;;;;;;;6206976;23;20013;-95
2023/07/30 02:11:59;;;;;;;38.47;5.35;;;;;;;;;;6208912;23;20008;-95
2023/07/30 02:14:25;;;;;;;26.25;5.40;;;;;;;;;;6205164;23;20016;-96
2023/07/30 02:16:54;;;;;;;24.70;5.60;;;;;;;;;;6207474;23;20009;-96
2023/07/30 02:19:20;;;;;;;23.00;5.32;;;;;;;;;;6208441;23;20036;-95
2023/07/30 02:21:47;;;;;;;25.63;5.07;;;;;;;;;;6233460;23;20005;-96
2023/07/30 02:24:13;;;;;;;26.08;5.60;;;;;;;;;;6234036;23;20015;-95
2023/07/30 02:26:39;;;;;;;24.38;4.82;;;;;;;;;;6229281;23;20028;-94
2023/07/30 02:29:05;;;;;;;23.33;5.13;;;;;;;;;;6203960;23;20084;-95
2023/07/30 02:31:31;;;;;;;31.42;6.32;;;;;;;;;;6200198;23;20013;-93
2023/07/30 02:33:58;;;;;;;22.83;5.47;;;;;;;;;;6201757;23;20048;-93
2023/07/30 02:36:24;;;;;;;20.98;5.18;;;;;;;;;;6202620;23;20012;-93
2023/07/30 02:38:51;;;;;;;24.02;4.72;;;;;;;;;;6226872;23;20008;-93
2023/07/30 02:41:17;;;;;;;24.00;5.25;;;;;;;;;;6203665;23;20016;-92
2023/07/30 02:43:44;;;;;;;20.55;5.25;;;;;;;;;;6228415;23;19997;-93
2023/07/30 02:46:10;;;;;;;18.20;5.53;;;;;;;;;;6225175;23;20011;-94
2023/07/30 02:48:49;;;;;;;38.33;5.40;;;;;;;;;;6203002;22;20044;-93
2023/07/30 02:51:15;;;;;;;17.38;4.40;;;;;;;;;;6204996;23;20012;-93
2023/07/30 02:53:44;;;;;;;22.45;5.45;;;;;;;;;;6201114;23;20019;-94
2023/07/30 02:56:12;;;;;;;17.10;4.13;;;;;;;;;;6224505;23;20453;-94
2023/07/30 02:58:39;;;;;;;28.73;6.18;;;;;;;;;;6198876;23;20012;-95
2023/07/30 03:01:09;;;;;;;27.55;5.28;;;;;;;;;;6222947;23;20422;-91
2023/07/30 03:03:35;;;;;;;25.58;5.15;;;;;;;;;;6199421;23;20013;-94
2023/07/30 03:06:01;;;;;;;33.38;5.05;;;;;;;;;;6197982;23;20012;-95
2023/07/30 03:08:28;;;;;;;33.30;5.00;;;;;;;;;;6224017;23;20004;-94
2023/07/30 03:10:54;;;;;;;29.92;4.55;;;;;;;;;;6198646;23;20352;-95
2023/07/30 03:13:21;;;;;;;26.27;4.38;;;;;;;;;;6198268;23;20071;-94
2023/07/30 03:15:50;;;;;;;19.45;4.68;;;;;;;;;;6197967;23;20004;-95
2023/07/30 03:18:22;;;;;;;25.50;5.60;;;;;;;;;;6198407;23;20012;-95
2023/07/30 03:20:49;;;;;;;25.65;5.50;;;;;;;;;;6197376;23;20008;-94
2023/07/30 03:23:15;;;;;;;31.48;5.63;;;;;;;;;;6198384;23;20008;-94
2023/07/30 03:25:41;;;;;;;24.10;5.45;;;;;;;;;;6196113;23;20066;-95
2023/07/30 03:28:10;;;;;;;31.02;5.35;;;;;;;;;;6195545;23;20504;-93
2023/07/30 03:30:36;;;;;;;37.42;6.45;;;;;;;;;;6221011;23;20012;-94
2023/07/30 03:33:02;;;;;;;27.05;6.68;;;;;;;;;;6196385;23;20346;-95
2023/07/30 03:35:32;;;;;;;20.20;3.90;;;;;;;;;;6195412;23;20051;-94
2023/07/30 03:37:58;;;;;;;26.40;5.25;;;;;;;;;;6197532;23;20015;-93
2023/07/30 03:40:24;;;;;;;26.05;5.20;;;;;;;;;;6196223;23;20019;-95
2023/07/30 03:42:50;;;;;;;14.38;4.47;;;;;;;;;;6196409;23;20008;-94
2023/07/30 03:45:16;;;;;;;29.63;5.97;;;;;;;;;;6220710;23;20089;-94
2023/07/30 03:47:43;;;;;;;38.05;6.10;;;;;;;;;;6221095;23;20008;-95
2023/07/30 03:50:09;;;;;;;24.83;4.65;;;;;;;;;;6190856;22;20035;-94
2023/07/30 03:52:35;;;;;;;21.10;4.43;;;;;;;;;;6193112;23;20022;-94
2023/07/30 03:55:02;;;;;;;28.88;5.30;;;;;;;;;;6191438;23;20041;-94
2023/07/30 03:57:32;;;;;;;24.55;3.85;;;;;;;;;;6194431;23;20442;-93
2023/07/30 03:59:58;;;;;;;21.40;5.70;;;;;;;;;;6192272;23;20008;-93
2023/07/30 04:02:24;;;;;;;23.75;4.70;;;;;;;;;;6191839;23;20009;-95
2023/07/30 04:04:50;;;;;;;22.73;5.00;;;;;;;;;;6191977;23;20012;-94
2023/07/30 04:07:17;;;;;;;30.90;4.82;;;;;;;;;;6217407;23;20009;-93
2023/07/30 04:09:45;;;;;;;33.05;5.30;;;;;;;;;;6218246;23;20008;-93
2023/07/30 04:12:11;;;;;;;14.80;4.22;;;;;;;;;;6193165;23;20009;-94
2023/07/30 04:14:38;;;;;;;23.35;4.40;;;;;;;;;;6190221;23;20477;-94
2023/07/30 04:17:04;;;;;;;29.38;4.57;;;;;;;;;;6214667;23;20379;-94
2023/07/30 04:19:30;;;;;;;21.35;4.50;;;;;;;;;;6189577;23;20013;-94
2023/07/30 04:21:58;;;;;;;26.00;5.80;;;;;;;;;;6192644;23;20470;-94
2023/07/30 04:24:25;;;;;;;20.67;4.43;;;;;;;;;;6218142;23;20092;-95
2023/07/30 04:26:52;;;;;;;21.85;5.28;;;;;;;;;;6192560;23;20012;-94
2023/07/30 04:29:18;;;;;;;24.80;5.45;;;;;;;;;;6190688;23;20005;-94
2023/07/30 04:31:46;;;;;;;31.85;5.00;;;;;;;;;;6217003;23;20009;-94
2023/07/30 04:34:23;;;;;;;13.63;4.47;;;;;;;;;;6170438;23;20055;-94
2023/07/30 04:36:55;;;;;;;22.40;4.70;;;;;;;;;;6216423;23;20083;-94
2023/07/30 04:39:24;;;;;;;21.98;4.32;;;;;;;;;;6217840;23;20036;-94
2023/07/30 04:41:51;;;;;;;27.45;5.22;;;;;;;;;;6192350;23;20091;-95
2023/07/30 04:44:20;;;;;;;23.05;5.68;;;;;;;;;;6192346;23;20032;-94
2023/07/30 04:46:49;;;;;;;22.25;4.25;;;;;;;;;;6193560;23;20008;-93
2023/07/30 04:49:29;;;;;;;22.38;4.88;;;;;;;;;;6188504;22;20017;-94
2023/07/30 04:51:55;;;;;;;35.38;4.85;;;;;;;;;;6162780;23;20005;-94
2023/07/30 04:54:21;;;;;;;20.63;4.22;;;;;;;;;;6130765;23;20052;-93
2023/07/30 04:56:50;;;;;;;21.98;4.22;;;;;;;;;;6129511;23;20486;-95
2023/07/30 04:59:16;;;;;;;18.33;3.65;;;;;;;;;;6129448;23;20016;-93
2023/07/30 05:01:43;;;;;;;16.02;4.28;;;;;;;;;;6155505;23;20088;-94
2023/07/30 05:04:09;;;;;;;14.63;4.07;;;;;;;;;;6155589;23;20009;-94
2023/07/30 05:06:35;;;;;;;26.02;4.65;;;;;;;;;;6155161;23;20014;-94
2023/07/30 05:09:01;;;;;;;18.38;4.25;;;;;;;;;;6130211;23;20072;-93
2023/07/30 05:11:27;;;;;;;18.25;3.58;;;;;;;;;;6156828;23;20013;-93
2023/07/30 05:13:57;;;;;;;17.33;3.97;;;;;;;;;;6129885;23;20041;-94
2023/07/30 05:16:25;;;;;;;19.20;3.75;;;;;;;;;;6132057;23;20014;-95
2023/07/30 05:18:52;;;;;;;15.63;3.58;;;;;;;;;;6157646;23;20120;-94
2023/07/30 05:21:27;;;;;;;28.90;4.25;;;;;;;;;;6156068;23;20008;-94
2023/07/30 05:23:53;;;;;;;15.63;4.38;;;;;;;;;;6133030;23;20467;-93
2023/07/30 05:26:19;;;;;;;14.13;3.72;;;;;;;;;;6131544;23;20024;-95
2023/07/30 05:28:46;;;;;;;20.85;3.85;;;;;;;;;;6127006;23;20017;-94
2023/07/30 05:31:12;;;;;;;16.33;3.15;;;;;;;;;;6160613;23;20217;-94
2023/07/30 05:33:40;;;;;;;20.45;3.50;;;;;;;;;;6158731;23;20063;-94
2023/07/30 05:36:07;;;;;;;18.50;3.67;;;;;;;;;;6159781;23;20063;-94
2023/07/30 05:38:34;;;;;;;13.27;3.42;;;;;;;;;;6159834;23;20055;-94
2023/07/30 05:41:00;;;;;;;14.63;3.70;;;;;;;;;;6182916;23;20504;-94
2023/07/30 05:43:26;;;;;;;25.42;3.95;;;;;;;;;;6182215;23;20013;-93
2023/07/30 05:45:52;;;;;;;13.88;3.72;;;;;;;;;;6158583;23;20019;-94
2023/07/30 05:48:18;;;;;;;12.77;3.00;;;;;;;;;;6158030;23;20009;-94
2023/07/30 05:50:44;;;;;;;17.08;3.63;;;;;;;;;;6182913;22;20025;-94
2023/07/30 05:53:20;;;;;;;16.65;3.38;;;;;;;;;;6187994;23;20151;-95
2023/07/30 05:55:46;;;;;;;10.73;2.35;;;;;;;;;;6188719;23;20023;-95
2023/07/30 05:58:33;;;;;;;18.17;4.00;;;;;;;;;;6213388;23;20008;-94
2023/07/30 06:01:02;;;;;;;20.35;3.22;;;;;;;;;;6213108;23;20016;-94
2023/07/30 06:03:30;;;;;;;19.80;3.35;;;;;;;;;;6189765;23;20091;-94
2023/07/30 06:05:57;;;;;;;16.73;3.28;;;;;;;;;;6188063;23;20009;-96
2023/07/30 06:08:23;;;;;;;14.90;4.18;;;;;;;;;;6213942;23;20497;-95
2023/07/30 06:10:49;;;;;;;17.35;3.25;;;;;;;;;;6211701;23;20431;-94
2023/07/30 06:13:15;;;;;;;14.35;3.17;;;;;;;;;;6188545;23;20120;-95
2023/07/30 06:15:42;;;;;;;17.45;2.97;;;;;;;;;;6189819;23;20020;-95
2023/07/30 06:18:14;;;;;;;15.45;3.45;;;;;;;;;;6215641;23;20004;-94
2023/07/30 06:20:43;;;;;;;13.60;2.88;;;;;;;;;;6189214;23;20019;-95
2023/07/30 06:23:09;;;;;;;25.05;3.35;;;;;;;;;;6214642;23;20606;-94
2023/07/30 06:25:36;;;;;;;16.77;3.55;;;;;;;;;;6212915;23;20016;-94
2023/07/30 06:28:03;;;;;;;15.98;3.05;;;;;;;;;;6214737;23;20043;-94
2023/07/30 06:30:32;;;;;;;21.98;3.72;;;;;;;;;;6188670;23;20015;-93
2023/07/30 06:32:59;;;;;;;9.32;2.83;;;;;;;;;;6215133;23;20016;-94
2023/07/30 06:35:34;;;;;;;14.60;3.55;;;;;;;;;;6211736;23;20008;-94
2023/07/30 06:38:00;;;;;;;14.73;3.05;;;;;;;;;;6214756;23;20040;-94
2023/07/30 06:40:27;;;;;;;16.15;2.78;;;;;;;;;;6191884;23;20506;-94
2023/07/30 06:42:53;;;;;;;13.77;3.55;;;;;;;;;;6195188;23;20012;-94
2023/07/30 06:45:19;;;;;;;14.23;2.45;;;;;;;;;;6195191;23;20016;-95
2023/07/30 06:47:45;;;;;;;16.10;2.25;;;;;;;;;;6220929;23;20055;-94
2023/07/30 06:50:12;;;;;;;15.05;3.45;;;;;;;;;;6223222;22;20047;-93
2023/07/30 06:52:56;;;;;;;14.38;3.30;;;;;;;;;;6197645;23;20013;-96
2023/07/30 06:55:32;;;;;;;13.82;3.72;;;;;;;;;;6220106;23;20005;-96
2023/07/30 06:57:58;;;;;;;19.92;3.25;;;;;;;;;;6218793;23;20005;-95
2023/07/30 07:00:27;;;;;;;12.70;3.10;;;;;;;;;;6192452;23;20018;-94
2023/07/30 07:02:53;;;;;;;10.95;3.08;;;;;;;;;;6190457;23;20017;-94
2023/07/30 07:05:19;;;;;;;15.23;3.03;;;;;;;;;;6215385;23;20009;-93
2023/07/30 07:07:54;;;;;;;15.75;3.45;;;;;;;;;;6189988;23;20140;-94
2023/07/30 07:10:21;;;;;;;12.53;2.77;;;;;;;;;;6190372;23;20013;-94
2023/07/30 07:12:47;;;;;;;11.38;3.55;;;;;;;;;;6213928;23;20071;-93
2023/07/30 07:15:23;;;;;;;13.70;4.55;;;;;;;;;;6190464;23;20013;-94
2023/07/30 07:17:49;;;;;;;13.68;2.80;;;;;;;;;;6191081;23;20008;-95
2023/07/30 07:20:15;;;;;;;8.38;2.55;;;;;;;;;;6212697;23;20457;-94
2023/07/30 07:22:45;;;;;;;15.85;2.40;;;;;;;;;;6211817;23;20009;-94
2023/07/30 07:25:11;;;;;;;13.93;3.03;;;;;;;;;;6213058;23;20025;-93
2023/07/30 07:28:01;;;;;;;8.73;2.45;;;;;;;;;;6214239;23;20005;-94
2023/07/30 07:30:26;;;;;;;23.77;3.17;;;;;;;;;;6213713;22;20005;-94
2023/07/30 07:32:53;;;;;;;11.65;2.58;;;;;;;;;;6188150;23;20032;-94
2023/07/30 07:35:22;;;;;;;18.20;3.08;;;;;;;;;;6211040;23;20005;-93
2023/07/30 07:37:48;;;;;;;7.72;2.33;;;;;;;;;;6212737;23;20008;-94
2023/07/30 07:40:15;;;;;;;14.32;3.13;;;;;;;;;;6188308;23;20011;-94
2023/07/30 07:42:42;;;;;;;11.57;2.72;;;;;;;;;;6212087;23;19996;-93
2023/07/30 07:45:11;;;;;;;14.75;2.88;;;;;;;;;;6213448;23;20008;-93
2023/07/30 08:07:25;;;;;;;9.35;2.13;;;;;;;;;;6222123;22;20083;-96
2023/07/30 08:09:59;;;;;;;9.88;2.47;;;;;;;;;;6220596;22;20024;-95
2023/07/30 08:12:28;;;;;;;11.38;2.15;;;;;;;;;;6195046;23;20067;-95
2023/07/30 08:14:57;;;;;;;12.05;2.33;;;;;;;;;;6196621;23;20009;-96
2023/07/30 08:17:26;;;;;;;16.13;2.70;;;;;;;;;;6196862;23;20012;-96
2023/07/30 08:19:52;;;;;;;13.25;2.88;;;;;;;;;;6219994;23;20351;-96
2023/07/30 08:22:19;;;;;;;13.32;2.30;;;;;;;;;;6219168;23;20450;-94
2023/07/30 08:24:45;;;;;;;12.25;2.30;;;;;;;;;;6220611;23;20027;-95
2023/07/30 08:27:14;;;;;;;8.48;2.33;;;;;;;;;;6219833;23;20294;-96
2023/07/30 08:29:45;;;;;;;10.95;1.98;;;;;;;;;;6195346;23;20017;-96
2023/07/30 08:32:11;;;;;;;4.53;1.77;;;;;;;;;;6193540;23;20016;-95
2023/07/30 08:34:37;;;;;;;13.35;2.67;;;;;;;;;;6192165;23;20331;-94
2023/07/30 08:37:03;;;;;;;10.15;2.13;;;;;;;;;;6190146;23;20017;-95
2023/07/30 08:39:29;;;;;;;6.57;2.10;;;;;;;;;;6215571;23;20399;-95
2023/07/30 08:41:55;;;;;;;6.93;2.10;;;;;;;;;;6191108;23;20008;-94
2023/07/30 08:44:22;;;;;;;10.68;1.85;;;;;;;;;;6192151;23;20013;-96
2023/07/30 08:46:52;;;;;;;9.70;2.15;;;;;;;;;;6192297;23;20514;-95
2023/07/30 08:49:18;;;;;;;5.10;2.00;;;;;;;;;;6218077;23;20339;-96
2023/07/30 08:51:45;;;;;;;9.60;2.00;;;;;;;;;;6191423;23;20013;-95
2023/07/30 08:54:15;;;;;;;11.73;2.90;;;;;;;;;;6216365;23;20008;-95
2023/07/30 08:56:42;;;;;;;10.05;3.15;;;;;;;;;;6215932;23;20017;-95
2023/07/30 08:59:08;;;;;;;8.57;3.40;;;;;;;;;;6192721;23;20016;-96
2023/07/30 09:01:38;;;;;;;9.27;2.15;;;;;;;;;;6193790;23;20004;-95
2023/07/30 09:04:05;;;;;;;8.20;1.85;;;;;;;;;;6221671;23;20352;-95
2023/07/30 09:06:33;;;;;;;9.50;2.05;;;;;;;;;;6218364;23;20012;-95
2023/07/30 09:08:59;;;;;;;5.88;1.23;;;;;;;;;;6196146;22;20024;-95
2023/07/30 09:11:27;;;;;;;6.03;1.52;;;;;;;;;;6193085;23;20049;-96
2023/07/30 09:14:02;;;;;;;10.80;1.95;;;;;;;;;;6217464;23;20015;-94
2023/07/30 09:16:28;;;;;;;16.38;4.68;;;;;;;;;;6218441;23;20008;-95
2023/07/30 09:18:55;;;;;;;7.80;1.80;;;;;;;;;;6193354;23;20024;-96
2023/07/30 09:21:30;;;;;;;6.45;2.42;;;;;;;;;;6191296;23;20020;-96
2023/07/30 09:23:56;;;;;;;8.40;2.03;;;;;;;;;;6218137;23;20056;-96
2023/07/30 09:26:23;;;;;;;6.43;1.80;;;;;;;;;;6214905;23;20009;-96
2023/07/30 09:28:50;;;;;;;6.63;2.15;;;;;;;;;;6189893;23;20071;-95
2023/07/30 09:31:16;;;;;;;7.93;1.50;;;;;;;;;;6191338;23;20013;-95
2023/07/30 09:33:42;;;;;;;9.90;2.25;;;;;;;;;;6190322;23;20024;-96
2023/07/30 09:36:11;;;;;;;12.90;2.38;;;;;;;;;;6216503;23;20009;-95
2023/07/30 09:38:45;;;;;;;18.80;2.90;;;;;;;;;;6191130;23;20020;-96
2023/07/30 09:41:14;;;;;;;8.27;2.00;;;;;;;;;;6215043;23;20004;-95
2023/07/30 09:43:40;;;;;;;6.25;1.45;;;;;;;;;;6216410;23;20005;-95
2023/07/30 09:46:07;;;;;;;6.25;1.15;;;;;;;;;;6216350;23;20031;-95
2023/07/30 09:48:34;;;;;;;6.32;1.40;;;;;;;;;;6193961;23;20020;-95
2023/07/30 09:51:02;;;;;;;6.13;1.50;;;;;;;;;;6218315;23;20016;-94
2023/07/30 09:53:34;;;;;;;10.00;4.03;;;;;;;;;;6218008;23;20067;-95
2023/07/30 09:56:01;;;;;;;4.75;1.83;;;;;;;;;;6194423;23;20043;-96
2023/07/30 09:58:27;;;;;;;6.28;1.63;;;;;;;;;;6194551;23;20439;-95
2023/07/30 10:01:12;;;;;;;4.78;1.33;;;;;;;;;;6219172;23;20020;-95
2023/07/30 10:03:39;;;;;;;3.03;1.40;;;;;;;;;;6218904;23;20005;-96
2023/07/30 10:06:07;;;;;;;3.88;1.23;;;;;;;;;;6197718;23;20024;-96
2023/07/30 10:08:36;;;;;;;3.15;1.35;;;;;;;;;;6224519;22;20020;-95
2023/07/30 10:11:04;;;;;;;6.82;1.58;;;;;;;;;;6221888;23;20008;-96
2023/07/30 10:13:31;;;;;;;8.23;1.52;;;;;;;;;;6221168;23;20070;-96
2023/07/30 10:16:01;;;;;;;2.95;1.40;;;;;;;;;;6222576;23;20011;-96
2023/07/30 10:18:57;;;;;;;9.02;1.98;;;;;;;;;;6197887;23;20439;-96
2023/07/30 10:21:24;;;;;;;4.10;1.30;;;;;;;;;;6220445;23;20004;-96
2023/07/30 10:24:01;;;;;;;2.08;1.10;;;;;;;;;;6221853;23;20001;-96
2023/07/30 10:26:29;;;;;;;7.45;1.92;;;;;;;;;;6223579;23;20008;-96
2023/07/30 10:29:10;;;;;;;5.50;1.63;;;;;;;;;;6201058;23;20427;-95
2023/07/30 10:32:23;;;;;;;5.88;1.48;;;;;;;;;;6226007;23;20083;-95
2023/07/30 10:37:46;;;;;;;4.45;1.10;;;;;;;;;;6122091;23;20024;-95
2023/07/30 10:40:12;;;;;;;;;;;;;;;;;;6134657;23;20013;-96
2023/07/30 10:42:38;;;;;;;8.65;1.85;;;;;;;;;;6160622;23;19920;-96
2023/07/30 10:45:24;;;;;;;5.32;1.40;;;;;;;;;;6184744;23;20074;-96
2023/07/30 10:47:51;;;;;;;10.95;2.25;;;;;;;;;;6223811;23;20008;-96
2023/07/30 10:50:37;;;;;;;9.32;2.20;;;;;;;;;;6200887;23;20016;-96
2023/07/30 10:53:03;;;;;;;3.70;1.85;;;;;;;;;;6170104;23;20022;-96
2023/07/30 10:55:32;;;;;;;9.15;1.80;;;;;;;;;;6171785;23;20550;-96
2023/07/30 10:58:00;;;;;;;8.90;2.47;;;;;;;;;;6171518;23;20021;-96
2023/07/30 11:00:26;;;;;;;7.57;2.67;;;;;;;;;;6174848;23;20039;-95
2023/07/30 11:02:56;;;;;;;5.65;1.50;;;;;;;;;;6172526;23;20032;-96
2023/07/30 11:05:33;;;;;;;11.85;2.13;;;;;;;;;;6171787;23;20015;-96
2023/07/30 11:07:59;;;;;;;5.93;1.88;;;;;;;;;;6168764;23;20005;-96
2023/07/30 11:10:28;;;;;;;6.20;1.92;;;;;;;;;;6177417;23;20053;-95
2023/07/30 11:12:55;;;;;;;10.70;2.55;;;;;;;;;;6151628;23;20061;-94
2023/07/30 11:15:21;;;;;;;7.10;1.63;;;;;;;;;;6150481;23;20005;-96
2023/07/30 11:17:49;;;;;;;8.52;1.95;;;;;;;;;;6166292;23;20010;-95
2023/07/30 11:20:23;;;;;;;4.63;1.90;;;;;;;;;;6161140;23;20021;-95
2023/07/30 11:22:49;;;;;;;8.20;2.10;;;;;;;;;;6133947;23;20037;-96
2023/07/30 11:25:18;;;;;;;8.25;1.60;;;;;;;;;;6219124;23;20434;-96
2023/07/30 11:27:48;;;;;;;10.15;1.98;;;;;;;;;;6243449;23;20059;-96
2023/07/30 11:30:14;;;;;;;5.32;2.10;;;;;;;;;;6242943;23;20082;-96
2023/07/30 11:32:42;;;;;;;6.85;1.98;;;;;;;;;;6243430;23;20009;-96
2023/07/30 11:35:12;;;;;;;8.07;1.85;;;;;;;;;;6242517;23;20075;-95
2023/07/30 11:37:40;;;;;;;7.25;1.63;;;;;;;;;;6218171;23;20012;-96
2023/07/30 11:40:08;;;;;;;8.57;1.88;;;;;;;;;;6218865;23;20011;-96
2023/07/30 11:42:37;;;;;;;9.25;2.60;;;;;;;;;;6217873;23;20092;-95
2023/07/30 11:45:22;;;;;;;8.48;2.58;;;;;;;;;;6217136;23;20084;-96
2023/07/30 11:47:49;;;;;;;11.23;2.20;;;;;;;;;;6240670;23;20051;-95
2023/07/30 11:50:18;;;;;;;9.68;1.77;;;;;;;;;;6243457;23;20453;-96
2023/07/30 11:52:57;;;;;;;15.55;2.35;;;;;;;;;;6245150;23;20009;-96
2023/07/30 11:55:24;;;;;;;10.40;2.08;;;;;;;;;;6243279;23;20001;-96
2023/07/30 11:57:51;;;;;;;8.00;1.88;;;;;;;;;;6217123;23;20008;-96
2023/07/30 12:00:21;;;;;;;8.40;1.70;;;;;;;;;;6244221;23;20024;-96
2023/07/30 12:02:53;;;;;;;15.10;5.13;;;;;;;;;;6246300;23;20004;-96
2023/07/30 12:05:35;;;;;;;12.18;3.03;;;;;;;;;;6229612;23;20012;-96
2023/07/30 12:08:07;;;;;;;5.05;1.88;;;;;;;;;;6245362;23;20083;-96
2023/07/30 12:10:56;;;;;;;10.93;2.13;;;;;;;;;;6222960;22;20074;-96
2023/07/30 12:13:29;;;;;;;11.32;2.10;;;;;;;;;;6218687;23;20011;-96
2023/07/30 12:15:56;;;;;;;9.85;1.42;;;;;;;;;;6194979;23;20017;-96
2023/07/30 12:18:28;;;;;;;14.80;2.28;;;;;;;;;;6218469;23;20016;-96
2023/07/30 12:20:56;;;;;;;9.07;1.73;;;;;;;;;;6194452;23;20009;-96
2023/07/30 12:23:22;;;;;;;6.55;1.38;;;;;;;;;;6219257;23;20031;-96
2023/07/30 12:25:49;;;;;;;12.40;1.83;;;;;;;;;;6219820;23;20013;-96
2023/07/30 12:28:15;;;;;;;12.68;2.15;;;;;;;;;;6220991;23;20008;-96
2023/07/30 12:30:41;;;;;;;8.32;1.70;;;;;;;;;;6220188;23;20005;-96
2023/07/30 12:33:10;;;;;;;6.00;1.30;;;;;;;;;;6217763;23;20083;-96
2023/07/30 12:35:36;;;;;;;5.30;1.38;;;;;;;;;;6216258;23;20008;-96
2023/07/30 12:38:03;;;;;;;9.68;1.40;;;;;;;;;;6192458;23;20008;-96
2023/07/30 12:40:33;;;;;;;2.95;0.98;;;;;;;;;;6220625;22;20024;-86
2023/07/30 12:43:13;;;;;;;6.05;1.58;;;;;;;;;;6216110;22;20028;-86
2023/07/30 12:45:48;;;;;;;3.67;1.55;;;;;;;;;;6244223;23;20099;-86
2023/07/30 12:48:20;;;;;;;3.72;1.52;;;;;;;;;;6212267;23;20016;-87
2023/07/30 12:51:27;;;;;;;3.83;1.10;;;;;;;;;;6211578;23;20025;-87
2023/07/30 12:53:55;;;;;;;;;;;;;;;;;;6215065;23;20008;-87
2023/07/30 12:56:46;;;;;;;;;;;;;;;;;;;;;
2023/07/30 13:02:23;;;;;;;6.38;2.25;;;;;;;;;;6122538;23;20092;-87
2023/07/30 13:04:49;;;;;;;3.55;1.45;;;;;;;;;;6126055;23;20070;-86
2023/07/30 13:07:19;;;;;;;7.75;1.60;;;;;;;;;;6174908;23;20072;-86
2023/07/30 13:10:04;;;;;;;8.95;2.03;;;;;;;;;;6194898;23;20097;-85
2023/07/30 13:12:37;;;;;;;11.45;1.48;;;;;;;;;;6217746;23;20020;-86
2023/07/30 13:15:03;;;;;;;4.28;1.50;;;;;;;;;;6190512;23;20387;-86
2023/07/30 13:20:22;;;;;;;9.00;1.48;;;;;;;;;;6105528;23;20017;-87
2023/07/30 13:22:54;;;;;;;8.27;1.67;;;;;;;;;;6229249;23;20009;-86
2023/07/30 13:25:39;;;;;;;6.45;1.40;;;;;;;;;;6197276;23;20028;-86
2023/07/30 13:28:05;;;;;;;4.60;1.33;;;;;;;;;;6222736;23;20065;-87
2023/07/30 13:30:34;;;;;;;4.72;1.23;;;;;;;;;;6192014;23;20016;-88
2023/07/30 13:33:01;;;;;;;4.40;0.80;;;;;;;;;;6215707;23;20393;-88
2023/07/30 13:35:40;;;;;;;4.88;1.40;;;;;;;;;;6196266;23;20032;-89
2023/07/30 13:38:26;;;;;;;2.65;0.93;;;;;;;;;;6199760;23;20461;-89
2023/07/30 13:40:52;;;;;;;7.03;1.50;;;;;;;;;;6199792;23;20349;-89
2023/07/30 13:43:22;;;;;;;9.95;2.00;;;;;;;;;;6193836;22;20012;-90
2023/07/30 13:45:52;;;;;;;12.32;1.98;;;;;;;;;;6193609;23;20343;-89
2023/07/30 13:48:18;;;;;;;7.68;1.50;;;;;;;;;;6218047;23;20381;-89
2023/07/30 13:50:47;;;;;;;7.13;1.98;;;;;;;;;;6217695;23;20009;-88
2023/07/30 13:53:13;;;;;;;5.38;1.45;;;;;;;;;;6193057;23;20115;-89
2023/07/30 13:55:58;;;;;;;6.15;1.52;;;;;;;;;;6195059;23;20047;-89
2023/07/30 14:01:11;;;;;;;7.28;1.45;;;;;;;;;;6222028;23;20059;-89
2023/07/30 14:03:42;;;;;;;5.03;1.35;;;;;;;;;;6220598;23;20001;-87
2023/07/30 14:06:08;;;;;;;13.27;1.13;;;;;;;;;;6221282;23;20328;-88
2023/07/30 14:08:36;;;;;;;13.30;1.70;;;;;;;;;;6195880;23;20016;-88
2023/07/30 14:11:02;;;;;;;6.57;1.33;;;;;;;;;;6218441;23;20032;-87
2023/07/30 14:16:18;;;;;;;4.03;1.33;;;;;;;;;;6215882;23;19997;-88
2023/07/30 14:18:54;;;;;;;;;;;;;;;;;;;;;
2023/07/30 14:21:24;;;;;;;5.57;1.13;;;;;;;;;;6219062;23;20096;-86
2023/07/30 14:23:51;;;;;;;6.97;1.42;;;;;;;;;;6230064;23;19988;-87
2023/07/30 14:26:18;;;;;;;9.38;1.73;;;;;;;;;;6218172;23;20005;-88
2023/07/30 14:28:47;;;;;;;9.38;1.58;;;;;;;;;;6192527;23;20019;-88
2023/07/30 14:31:14;;;;;;;6.63;1.40;;;;;;;;;;6215857;23;20010;-88
2023/07/30 14:33:40;;;;;;;7.75;1.23;;;;;;;;;;6189429;23;20001;-88
2023/07/30 14:36:16;;;;;;;10.52;1.95;;;;;;;;;;6225699;23;20039;-87
2023/07/30 14:38:43;;;;;;;4.43;1.63;;;;;;;;;;6225345;23;20011;-87
2023/07/30 14:41:10;;;;;;;6.88;2.15;;;;;;;;;;6193924;23;20020;-87
2023/07/30 14:43:40;;;;;;;9.70;1.70;;;;;;;;;;6217694;22;20004;-87
2023/07/30 14:46:13;;;;;;;5.53;1.42;;;;;;;;;;6231545;23;20093;-87
2023/07/30 14:48:40;;;;;;;7.30;1.35;;;;;;;;;;6195801;23;20034;-89
2023/07/30 14:51:10;;;;;;;7.50;1.70;;;;;;;;;;6193304;23;20099;-88
2023/07/30 14:53:43;;;;;;;7.55;2.72;;;;;;;;;;6220056;23;20000;-89
2023/07/30 14:56:57;;;;;;;4.65;1.55;;;;;;;;;;6223810;23;20008;-88
2023/07/30 14:59:07;;;;;;;8.23;1.75;;;;;;;;;;6214565;23;20015;-88
2023/07/30 15:01:33;;;;;;;9.43;1.48;;;;;;;;;;6193911;23;20071;-89
2023/07/30 15:03:59;;;;;;;13.30;1.88;;;;;;;;;;6222841;23;20338;-90
2023/07/30 15:06:28;;;;;;;7.47;1.58;;;;;;;;;;6219431;23;20011;-89
2023/07/30 15:08:55;;;;;;;8.65;1.80;;;;;;;;;;6218612;23;20004;-88
2023/07/30 15:11:30;;;;;;;6.13;1.35;;;;;;;;;;6220230;23;20016;-89
2023/07/30 15:14:11;;;;;;;8.27;2.03;;;;;;;;;;6193717;23;20437;-88
2023/07/30 15:16:40;;;;;;;10.25;1.55;;;;;;;;;;6224626;23;20019;-90
2023/07/30 15:19:08;;;;;;;4.18;1.00;;;;;;;;;;6191859;23;20005;-89
2023/07/30 15:21:37;;;;;;;4.30;1.58;;;;;;;;;;6194888;23;20035;-89
2023/07/30 15:24:03;;;;;;;5.97;2.00;;;;;;;;;;6221871;23;20054;-90
2023/07/30 15:26:30;;;;;;;6.38;1.75;;;;;;;;;;6219869;23;20090;-89
2023/07/30 15:28:57;;;;;;;5.45;1.70;;;;;;;;;;6249035;23;20032;-90
2023/07/30 15:31:26;;;;;;;6.65;1.77;;;;;;;;;;6248805;23;20027;-90
2023/07/30 15:33:53;;;;;;;4.20;1.30;;;;;;;;;;6249328;23;20441;-90
2023/07/30 15:36:19;;;;;;;7.18;1.50;;;;;;;;;;6196970;23;20016;-90